Řízení letového provozu České republiky  
Aktualizace dat:  19.06.2024 04:57:38 UTC English version
   METEO Zobrazení stránky:  19.06.2024 04:58:42 UTC  
vysvětlivky
METAR EDAC 190450Z AUTO VRB02KT 4400 // OVC003/// 17/17 Q1012=
METAR EDDB 190450Z AUTO 36010KT 320V020 9999 BKN005 15/14 Q1011 TEMPO 4000 -RADZ BKN004=
METAR EDDC 190450Z AUTO 23003KT 190V290 9999 -SHRA OVC005 FEW///TCU 17/17 Q1012 RESHRA TEMPO BKN004=
METAR EDDE 190450Z AUTO 32008KT 9999 OVC011 15/14 Q1014 NOSIG=
METAR EDDF 190450Z AUTO 34006KT 9999 FEW031 18/17 Q1012 NOSIG=
METAR EDDM 190450Z AUTO 26003KT CAVOK 19/15 Q1014=
METAR EDDN 190450Z AUTO 10007KT 350V120 9999 SHRA FEW///TCU 18/17 Q1013 TEMPO NSW=
METAR EDDP 190450Z AUTO 32011KT 9999 BKN006 OVC015 15/15 Q1013 NOSIG=
METAR EDQM 190450Z 22004KT CAVOK 17/16 Q1013=
METAR EPBY 190430Z 23008KT CAVOK 17/16 Q1009=
METAR EPGD 190430Z 24012KT CAVOK 17/15 Q1007=
METAR EPKK 190430Z 05003KT CAVOK 20/16 Q1013=
METAR EPKT 190430Z 15003KT CAVOK 21/16 Q1014=
METAR EPLB 190430Z 21005KT 160V250 CAVOK 22/17 Q1014=
METAR EPLL 190430Z 09003KT 030V130 CAVOK 20/15 Q1012=
METAR EPMO 190430Z 12005KT CAVOK 18/16 Q1011=
METAR EPPO 190430Z 21006KT CAVOK 17/16 Q1011=
METAR EPRZ 190430Z 21003KT 140V270 CAVOK 22/16 Q1015=
METAR EPWA 190430Z 31005KT CAVOK 20/16 Q1013 NOSIG=
METAR EPWR 190430Z 15008KT CAVOK 19/15 Q1012=
METAR LHBP 190430Z 00000KT CAVOK 19/17 Q1015 NOSIG=
METAR LHPR 190415Z AUTO 13007KT CAVOK 19/17 Q1013 NOSIG=
METAR LHSM 190415Z AUTO 16008KT CAVOK 19/17 Q1014=
METAR LKBC 190430Z AUTO 08003KT CAVOK 16/14 Q1013=
METAR LKCR 190430Z AUTO 26006KT 9999 OVC110 19/16 Q1012=
METAR LKCS 190430Z AUTO VRB02KT CAVOK 18/16 Q1013=
METAR LKCV 190430Z 15007KT CAVOK 20/16 Q1012 NOSIG RMK BLU BLU=
METAR LKKB 190430Z 21005KT CAVOK 20/17 Q1012 NOSIG RMK BLU BLU=
SPECI LKKU 190442Z 36004KT CAVOK 20/17 Q1013=
SPECI LKKV 190444Z 30005KT 260V330 9999 -SHRA FEW030 17/15 Q1014=
METAR LKLN 190430Z AUTO VRB02KT 9999 FEW100 16/14 Q1014=
METAR LKMT 190430Z 24003KT 180V250 CAVOK 21/18 Q1013 NOSIG=
METAR LKNA 190430Z 06003KT CAVOK 19/16 Q1013 RMK BLACK=
METAR LKPD 190430Z VRB02KT CAVOK 19/16 Q1012 NOSIG RMK BLU BLU=
METAR LKPJ 190430Z AUTO 27002KT CAVOK 18/17 Q1013=
METAR LKPR 190430Z 28003KT CAVOK 20/16 Q1012 NOSIG=
METAR LKTB 190430Z 10006KT CAVOK 21/17 Q1013 NOSIG=
METAR LKTH 190430Z AUTO 18003KT 080V240 CAVOK 21/16 Q1013=
METAR LKVO NIL
METAR LOWG 190450Z AUTO VRB02KT 9999 NCD 19/17 Q1014 NOSIG=
METAR LOWI 190450Z 28007KT 250V320 CAVOK 17/13 Q1016 NOSIG=
METAR LOWK 190450Z AUTO VRB02KT 9999 NCD 18/14 Q1017 NOSIG=
METAR LOWL 190450Z AUTO 27004KT 9999 NCD 20/18 Q1013 NOSIG=
METAR LOWS 190450Z AUTO 22004KT 190V360 CAVOK 19/13 Q1014 NOSIG=
METAR LOWW 190450Z 13004KT CAVOK 20/17 Q1012 NOSIG=
METAR LOXT NIL
METAR LOXZ 190450Z 08003KT 9999 FEW150 BKN350 17/13 Q1017=
METAR LZIB 190430Z 03007KT CAVOK 19/18 Q1013 NOSIG=
METAR LZKZ 190430Z VRB02KT CAVOK 20/17 Q1016 NOSIG=
METAR LZMC 190400Z 22008KT CAVOK 22/16 Q1012=
METAR LZPP 190430Z 13009KT CAVOK 23/17 Q1013=
METAR LZSL 190400Z 00000KT 9999 FEW050 16/15 Q1017=
METAR LZTT 190430Z 22003KT 180V250 9999 FEW060 17/14 Q1018=
METAR LZZI 190430Z VRB02KT CAVOK 17/15 Q1015=